Time;durP1;ratioP1;P1;durP2;ratioP2;P2;SDS_P1;SDS_P2;PMS_P1;PMS_P2;Temp;Humidity;BMP_temperature;BMP_pressure;BME280_temperature;BME280_humidity;BME280_pressure;Samples;Min_cycle;Max_cycle;Signal;HPM_P1;HPM_P2
2023/04/20 00:00:42;;;;;;;6.68;3.13;;;12.90;71.10;;;;;;5056823;28;20021;-66
2023/04/20 00:03:08;;;;;;;5.65;3.33;;;12.90;71.00;;;;;;5056643;28;20021;-66
2023/04/20 00:05:36;;;;;;;5.00;3.35;;;12.90;70.90;;;;;;5056474;28;20035;-66
2023/04/20 00:08:02;;;;;;;7.13;3.35;;;12.90;70.90;;;;;;5056375;28;20434;-65
2023/04/20 00:10:28;;;;;;;5.32;2.83;;;12.90;70.90;;;;;;5056919;28;20071;-66
2023/04/20 00:12:54;;;;;;;5.53;3.50;;;12.90;70.80;;;;;;5056270;28;20032;-66
2023/04/20 00:15:20;;;;;;;4.63;2.90;;;12.90;70.90;;;;;;5056821;28;20035;-66
2023/04/20 00:17:47;;;;;;;5.05;3.15;;;12.90;70.90;;;;;;5056254;28;20044;-65
2023/04/20 00:20:14;;;;;;;4.60;3.10;;;12.90;70.80;;;;;;5056492;28;20075;-66
2023/04/20 00:22:40;;;;;;;4.20;3.00;;;12.90;70.70;;;;;;5056298;28;20037;-66
2023/04/20 00:25:06;;;;;;;5.05;3.30;;;12.90;70.60;;;;;;5055082;28;20174;-66
2023/04/20 00:27:32;;;;;;;4.68;3.15;;;13.00;70.60;;;;;;5056573;28;20040;-66
2023/04/20 00:29:58;;;;;;;5.15;3.15;;;13.00;70.50;;;;;;5056541;28;20017;-65
2023/04/20 00:32:24;;;;;;;7.15;3.42;;;13.00;70.50;;;;;;5056158;28;20090;-65
2023/04/20 00:34:50;;;;;;;6.38;3.55;;;13.00;70.50;;;;;;5056417;28;20021;-65
2023/04/20 00:37:16;;;;;;;6.32;3.40;;;13.00;70.40;;;;;;5055659;28;20055;-66
2023/04/20 00:39:42;;;;;;;6.93;3.28;;;13.00;70.50;;;;;;5055843;28;20365;-66
2023/04/20 00:42:08;;;;;;;5.40;3.35;;;13.00;70.50;;;;;;5055642;28;20028;-65
2023/04/20 00:44:35;;;;;;;4.60;3.08;;;12.90;70.50;;;;;;5055703;28;20355;-66
2023/04/20 00:47:01;;;;;;;5.68;3.25;;;12.90;70.60;;;;;;5055997;28;20021;-66
2023/04/20 00:49:29;;;;;;;4.82;3.03;;;12.90;70.50;;;;;;5055071;28;20031;-66
2023/04/20 00:51:59;;;;;;;4.55;2.90;;;12.90;70.70;;;;;;5055489;28;20496;-65
2023/04/20 00:54:29;;;;;;;3.85;2.67;;;12.90;70.70;;;;;;5055864;28;20466;-65
2023/04/20 00:56:58;;;;;;;4.65;2.45;;;12.90;70.80;;;;;;5056604;28;20029;-65
2023/04/20 00:59:24;;;;;;;5.07;2.50;;;12.90;70.90;;;;;;5054460;28;20086;-65
2023/04/20 01:01:50;;;;;;;3.28;2.47;;;12.90;71.00;;;;;;5055136;28;20369;-64
2023/04/20 01:04:17;;;;;;;2.90;2.50;;;12.90;71.10;;;;;;5055211;28;20071;-65
2023/04/20 01:06:43;;;;;;;3.88;2.50;;;12.90;71.10;;;;;;5055864;28;20032;-65
2023/04/20 01:09:09;;;;;;;3.92;2.75;;;12.90;71.20;;;;;;5055541;28;20052;-65
2023/04/20 01:11:35;;;;;;;4.20;2.60;;;12.90;71.30;;;;;;5055201;28;20072;-65
2023/04/20 01:14:01;;;;;;;4.28;2.72;;;12.90;71.30;;;;;;5055225;28;20024;-65
2023/04/20 01:16:27;;;;;;;3.78;2.78;;;12.90;71.40;;;;;;5055448;28;20025;-65
2023/04/20 01:18:53;;;;;;;2.55;2.22;;;12.90;71.40;;;;;;5055168;28;20044;-65
2023/04/20 01:21:22;;;;;;;2.95;2.50;;;12.90;71.50;;;;;;5054987;28;20050;-65
2023/04/20 01:23:49;;;;;;;5.13;3.30;;;12.90;71.50;;;;;;5055630;28;20433;-65
2023/04/20 01:26:17;;;;;;;6.53;3.47;;;12.90;71.60;;;;;;5055086;28;20169;-65
2023/04/20 01:28:44;;;;;;;5.65;3.25;;;12.90;71.60;;;;;;5054113;28;20028;-65
2023/04/20 01:31:11;;;;;;;5.45;3.03;;;12.90;71.70;;;;;;5054949;28;20021;-65
2023/04/20 01:33:37;;;;;;;4.55;2.85;;;12.90;71.80;;;;;;5055305;28;20039;-65
2023/04/20 01:36:05;;;;;;;3.92;2.58;;;12.90;71.80;;;;;;5055592;28;20057;-65
2023/04/20 01:38:33;;;;;;;4.80;2.90;;;12.80;71.70;;;;;;5054818;28;20063;-64
2023/04/20 01:41:00;;;;;;;5.45;3.20;;;12.90;71.80;;;;;;5055006;28;20076;-65
2023/04/20 01:43:26;;;;;;;4.38;3.00;;;12.90;71.90;;;;;;5055333;28;20025;-65
2023/04/20 01:45:53;;;;;;;5.45;3.45;;;12.90;71.90;;;;;;5055216;28;20096;-65
2023/04/20 01:48:18;;;;;;;4.65;3.15;;;12.90;71.90;;;;;;5054896;28;20096;-65
2023/04/20 01:50:44;;;;;;;5.65;3.33;;;12.90;71.90;;;;;;5055223;28;20077;-65
2023/04/20 01:53:12;;;;;;;5.20;3.17;;;12.90;72.00;;;;;;5053809;28;20021;-65
2023/04/20 01:55:38;;;;;;;6.57;3.58;;;12.80;72.10;;;;;;5055154;28;20053;-65
2023/04/20 01:58:04;;;;;;;8.63;4.35;;;12.80;72.10;;;;;;5055116;28;20040;-64
2023/04/20 02:00:30;;;;;;;7.57;4.32;;;12.80;72.20;;;;;;5054801;28;20024;-64
2023/04/20 02:02:56;;;;;;;8.15;4.03;;;12.80;72.20;;;;;;5054920;28;20393;-65
2023/04/20 02:05:22;;;;;;;8.55;4.65;;;12.80;72.20;;;;;;5055022;28;20457;-65
2023/04/20 02:07:48;;;;;;;7.78;4.60;;;12.70;72.30;;;;;;5054757;28;20028;-65
2023/04/20 02:10:13;;;;;;;8.85;4.60;;;12.70;72.30;;;;;;5054988;28;20017;-64
2023/04/20 02:12:40;;;;;;;7.90;4.70;;;12.70;72.40;;;;;;5055145;28;20029;-65
2023/04/20 02:15:08;;;;;;;9.38;4.95;;;12.70;72.40;;;;;;5056293;28;20112;-65
2023/04/20 02:17:35;;;;;;;7.18;3.97;;;12.70;72.40;;;;;;5058492;28;20028;-65
2023/04/20 02:20:06;;;;;;;8.75;4.78;;;12.70;72.50;;;;;;5057554;28;20359;-65
2023/04/20 02:22:35;;;;;;;7.55;4.45;;;12.70;72.60;;;;;;5058335;28;20039;-65
2023/04/20 02:25:02;;;;;;;5.68;3.50;;;12.70;72.60;;;;;;5058674;28;20068;-65
2023/04/20 02:27:27;;;;;;;6.30;3.75;;;12.70;72.60;;;;;;5058340;28;20481;-65
2023/04/20 02:29:54;;;;;;;5.70;3.58;;;12.60;72.80;;;;;;5058576;28;20049;-65
2023/04/20 02:32:20;;;;;;;6.55;3.72;;;12.60;72.80;;;;;;5058723;28;20461;-65
2023/04/20 02:34:46;;;;;;;6.88;3.90;;;12.60;72.90;;;;;;5058243;28;20028;-65
2023/04/20 02:37:12;;;;;;;6.00;3.58;;;12.60;72.80;;;;;;5058143;28;20172;-65
2023/04/20 02:39:38;;;;;;;6.43;4.13;;;12.60;72.80;;;;;;5058623;28;20391;-65
2023/04/20 02:42:04;;;;;;;4.93;3.50;;;12.70;72.70;;;;;;5058211;28;20067;-65
2023/04/20 02:44:30;;;;;;;7.63;3.90;;;12.70;72.80;;;;;;5058300;28;20052;-65
2023/04/20 02:46:56;;;;;;;8.27;4.15;;;12.60;72.70;;;;;;5058251;28;20116;-65
2023/04/20 02:49:22;;;;;;;6.03;3.95;;;12.70;72.70;;;;;;5058178;28;20513;-65
2023/04/20 02:51:48;;;;;;;5.78;4.03;;;12.70;72.80;;;;;;5058251;28;20025;-65
2023/04/20 02:54:14;;;;;;;6.07;3.60;;;12.60;72.80;;;;;;5058102;28;20025;-65
2023/04/20 02:56:40;;;;;;;6.95;4.28;;;12.60;72.90;;;;;;5058092;28;20340;-65
2023/04/20 02:59:06;;;;;;;6.45;4.20;;;12.60;72.90;;;;;;5057787;28;20320;-65
2023/04/20 03:01:32;;;;;;;6.97;4.03;;;12.60;73.00;;;;;;5057585;28;20036;-65
2023/04/20 03:03:58;;;;;;;6.03;3.83;;;12.50;73.20;;;;;;5057639;28;20074;-64
2023/04/20 03:06:25;;;;;;;8.40;5.07;;;12.60;73.30;;;;;;5057623;28;20096;-65
2023/04/20 03:08:51;;;;;;;9.93;5.18;;;12.50;73.30;;;;;;5057572;28;20017;-65
2023/04/20 03:11:17;;;;;;;8.13;5.18;;;12.50;73.10;;;;;;5057477;28;20021;-65
2023/04/20 03:13:43;;;;;;;7.55;4.93;;;12.50;73.10;;;;;;5057738;28;20060;-65
2023/04/20 03:16:08;;;;;;;9.25;5.32;;;12.50;73.30;;;;;;5057932;28;20104;-65
2023/04/20 03:18:34;;;;;;;8.70;5.32;;;12.40;73.30;;;;;;5057375;28;20025;-65
2023/04/20 03:21:00;;;;;;;8.70;5.20;;;12.50;73.40;;;;;;5057327;28;20041;-65
2023/04/20 03:23:26;;;;;;;7.38;5.00;;;12.40;73.30;;;;;;5057145;28;20032;-65
2023/04/20 03:25:52;;;;;;;7.50;4.57;;;12.40;73.40;;;;;;5057303;28;20017;-65
2023/04/20 03:28:19;;;;;;;9.82;5.32;;;12.40;73.40;;;;;;5057465;28;20108;-64
2023/04/20 03:30:45;;;;;;;9.05;4.75;;;12.40;73.70;;;;;;5057451;28;20024;-65
2023/04/20 03:33:11;;;;;;;8.13;4.53;;;12.40;73.90;;;;;;5057090;28;20064;-65
2023/04/20 03:35:38;;;;;;;7.15;4.55;;;12.40;74.10;;;;;;5057335;28;20056;-65
2023/04/20 03:38:05;;;;;;;7.63;4.72;;;12.40;74.10;;;;;;5056728;28;20064;-65
2023/04/20 03:40:31;;;;;;;8.43;4.68;;;12.40;74.10;;;;;;5057016;28;20035;-65
2023/04/20 03:42:57;;;;;;;8.88;4.88;;;12.40;74.10;;;;;;5056776;28;20100;-65
2023/04/20 03:45:22;;;;;;;7.30;4.70;;;12.30;74.20;;;;;;5057384;28;20036;-65
2023/04/20 03:47:48;;;;;;;7.22;4.72;;;12.40;74.40;;;;;;5056848;28;20021;-65
2023/04/20 03:50:15;;;;;;;8.18;4.95;;;12.40;74.50;;;;;;5057284;28;20088;-65
2023/04/20 03:52:41;;;;;;;8.63;5.32;;;12.40;74.50;;;;;;5056659;28;20457;-65
2023/04/20 03:55:07;;;;;;;8.85;5.65;;;12.30;74.60;;;;;;5057245;28;20029;-65
2023/04/20 03:57:33;;;;;;;8.63;5.20;;;12.30;74.70;;;;;;5056620;28;20021;-65
2023/04/20 03:59:59;;;;;;;7.50;5.05;;;12.30;74.80;;;;;;5057192;28;20170;-65
2023/04/20 04:02:25;;;;;;;8.65;4.82;;;12.40;74.90;;;;;;5056418;28;20096;-65
2023/04/20 04:04:51;;;;;;;8.35;5.30;;;12.40;74.90;;;;;;5056784;28;20028;-65
2023/04/20 04:07:17;;;;;;;7.68;5.20;;;12.40;74.90;;;;;;5056477;28;20017;-65
2023/04/20 04:09:43;;;;;;;7.68;5.38;;;12.30;74.90;;;;;;5056401;28;20036;-65
2023/04/20 04:12:09;;;;;;;8.55;5.15;;;12.30;75.10;;;;;;5056638;28;20025;-65
2023/04/20 04:14:35;;;;;;;9.63;5.50;;;12.40;74.90;;;;;;5056316;28;20033;-65
2023/04/20 04:17:00;;;;;;;9.85;5.32;;;12.30;74.90;;;;;;5056792;28;20028;-65
2023/04/20 04:19:26;;;;;;;11.50;6.82;;;12.40;75.10;;;;;;5056518;28;20029;-65
2023/04/20 04:21:53;;;;;;;8.60;5.90;;;12.30;75.20;;;;;;5056054;28;20029;-65
2023/04/20 04:24:20;;;;;;;10.18;7.03;;;12.30;75.20;;;;;;5056146;28;20025;-65
2023/04/20 04:26:46;;;;;;;9.65;6.35;;;12.30;75.30;;;;;;5056061;28;20021;-65
2023/04/20 04:29:12;;;;;;;12.00;6.63;;;12.30;75.50;;;;;;5056595;28;20024;-65
2023/04/20 04:31:38;;;;;;;12.05;7.35;;;12.30;75.70;;;;;;5055926;28;20033;-65
2023/04/20 04:34:03;;;;;;;9.07;6.15;;;12.30;75.50;;;;;;5056249;28;20021;-65
2023/04/20 04:36:30;;;;;;;11.63;7.40;;;12.30;75.60;;;;;;5056141;28;20024;-65
2023/04/20 04:38:56;;;;;;;12.40;6.60;;;12.30;75.50;;;;;;5055131;28;20045;-65
2023/04/20 04:41:22;;;;;;;9.60;6.55;;;12.30;75.80;;;;;;5055746;28;20032;-65
2023/04/20 04:43:48;;;;;;;9.63;6.38;;;12.30;75.80;;;;;;5055736;28;20168;-65
2023/04/20 04:46:14;;;;;;;9.70;6.60;;;12.30;75.90;;;;;;5056196;28;20438;-65
2023/04/20 04:48:41;;;;;;;12.38;6.60;;;12.20;75.70;;;;;;5055712;28;20044;-65
2023/04/20 04:51:08;;;;;;;11.30;7.53;;;12.20;75.80;;;;;;5055671;28;20185;-65
2023/04/20 04:53:34;;;;;;;10.93;7.40;;;12.20;75.80;;;;;;5054542;28;20427;-65
2023/04/20 04:56:00;;;;;;;10.43;6.47;;;12.20;75.80;;;;;;5054616;28;20351;-65
2023/04/20 04:58:26;;;;;;;12.02;7.72;;;12.30;75.80;;;;;;5055769;28;20450;-65
2023/04/20 05:00:52;;;;;;;11.15;7.32;;;12.20;75.70;;;;;;5055488;28;20025;-68
2023/04/20 05:03:18;;;;;;;11.55;7.00;;;12.30;75.80;;;;;;5055575;28;20028;-65
2023/04/20 05:05:44;;;;;;;11.18;6.05;;;12.20;75.70;;;;;;5055946;28;20498;-65
2023/04/20 05:08:11;;;;;;;10.85;6.85;;;12.30;75.80;;;;;;5055638;28;20021;-65
2023/04/20 05:10:37;;;;;;;10.20;6.43;;;12.20;75.70;;;;;;5055294;28;20446;-65
2023/04/20 05:13:03;;;;;;;10.50;6.97;;;12.20;75.70;;;;;;5055517;28;20047;-65
2023/04/20 05:15:29;;;;;;;10.82;6.15;;;12.30;75.90;;;;;;5054289;28;20025;-65
2023/04/20 05:17:55;;;;;;;10.35;6.25;;;12.20;75.90;;;;;;5055448;28;20529;-65
2023/04/20 05:20:21;;;;;;;9.23;6.00;;;12.20;75.90;;;;;;5055415;28;20029;-65
2023/04/20 05:22:46;;;;;;;9.73;6.18;;;12.30;76.10;;;;;;5055200;28;20029;-65
2023/04/20 05:25:12;;;;;;;7.68;5.35;;;12.30;76.10;;;;;;5055134;28;20025;-65
2023/04/20 05:27:38;;;;;;;10.98;6.45;;;12.30;75.90;;;;;;5055084;28;20039;-65
2023/04/20 05:30:05;;;;;;;9.30;5.43;;;12.30;75.90;;;;;;5055578;28;20023;-65
2023/04/20 05:32:31;;;;;;;10.48;5.78;;;12.30;75.90;;;;;;5054929;28;20144;-65
2023/04/20 05:34:59;;;;;;;8.23;5.22;;;12.30;75.80;;;;;;5055509;28;20489;-65
2023/04/20 05:37:26;;;;;;;9.18;5.55;;;12.30;75.90;;;;;;5054967;28;20053;-67
2023/04/20 05:39:52;;;;;;;9.63;5.60;;;12.40;75.90;;;;;;5055216;28;20025;-65
2023/04/20 05:42:18;;;;;;;8.65;5.25;;;12.40;75.80;;;;;;5055093;28;20033;-65
2023/04/20 05:44:44;;;;;;;8.82;5.20;;;12.30;75.80;;;;;;5055181;28;20339;-66
2023/04/20 05:47:10;;;;;;;10.02;5.25;;;12.40;75.80;;;;;;5055046;28;20033;-65
2023/04/20 05:49:36;;;;;;;9.23;5.75;;;12.40;75.80;;;;;;5055842;28;20032;-66
2023/04/20 05:52:02;;;;;;;10.60;5.82;;;12.40;75.80;;;;;;5059253;28;20409;-65
2023/04/20 05:54:28;;;;;;;10.38;6.40;;;12.40;75.90;;;;;;5058924;28;20075;-65
2023/04/20 05:56:56;;;;;;;9.82;5.50;;;12.40;75.70;;;;;;5058896;28;20029;-65
2023/04/20 05:59:22;;;;;;;10.60;6.15;;;12.40;75.90;;;;;;5058811;28;20017;-66
2023/04/20 06:01:48;;;;;;;9.15;5.28;;;12.40;75.90;;;;;;5058686;28;20028;-66
2023/04/20 06:04:14;;;;;;;10.40;6.10;;;12.40;75.80;;;;;;5058765;28;20103;-65
2023/04/20 06:06:40;;;;;;;10.27;5.72;;;12.40;76.00;;;;;;5059003;28;20055;-65
2023/04/20 06:09:06;;;;;;;10.88;7.30;;;12.40;76.00;;;;;;5058944;28;20049;-66
2023/04/20 06:11:33;;;;;;;12.35;6.15;;;12.40;76.30;;;;;;5058569;28;20458;-65
2023/04/20 06:13:59;;;;;;;11.90;6.38;;;12.40;76.50;;;;;;5058592;28;20075;-66
2023/04/20 06:16:25;;;;;;;12.25;7.10;;;12.40;76.20;;;;;;5058535;28;20029;-68
2023/04/20 06:18:51;;;;;;;11.63;6.65;;;12.40;76.20;;;;;;5058765;28;20025;-66
2023/04/20 06:21:17;;;;;;;10.48;6.50;;;12.40;76.30;;;;;;5057496;28;20025;-66
2023/04/20 06:23:46;;;;;;;10.25;5.85;;;12.40;76.50;;;;;;5058596;28;20502;-66
2023/04/20 06:26:11;;;;;;;10.10;5.97;;;12.40;76.40;;;;;;5058911;28;20311;-65
2023/04/20 06:28:38;;;;;;;10.95;5.90;;;12.40;76.40;;;;;;5058758;28;20150;-65
2023/04/20 06:31:05;;;;;;;8.95;5.55;;;12.40;76.90;;;;;;5058538;28;20028;-65
2023/04/20 06:33:31;;;;;;;10.35;6.20;;;12.40;76.80;;;;;;5058424;28;20036;-66
2023/04/20 06:35:57;;;;;;;9.05;5.80;;;12.40;76.50;;;;;;5058178;28;20033;-65
2023/04/20 06:38:24;;;;;;;10.10;6.43;;;12.50;76.40;;;;;;5058018;28;20412;-65
2023/04/20 06:40:50;;;;;;;9.50;6.10;;;12.50;76.50;;;;;;5058091;28;20033;-65
2023/04/20 06:43:16;;;;;;;9.35;5.50;;;12.60;76.60;;;;;;5057898;28;20033;-65
2023/04/20 06:45:42;;;;;;;9.10;6.03;;;12.60;76.60;;;;;;5058013;28;20032;-65
2023/04/20 06:48:08;;;;;;;9.02;5.30;;;12.60;76.40;;;;;;5058521;28;20068;-65
2023/04/20 06:50:34;;;;;;;9.52;5.63;;;12.60;76.20;;;;;;5057972;28;20100;-65
2023/04/20 06:53:02;;;;;;;10.95;6.72;;;12.80;76.20;;;;;;5057916;28;20024;-65
2023/04/20 06:55:29;;;;;;;11.20;6.10;;;12.80;76.30;;;;;;5058122;28;20033;-65
2023/04/20 06:57:54;;;;;;;10.15;6.20;;;12.80;76.20;;;;;;5040236;28;20025;-65
2023/04/20 07:00:20;;;;;;;9.90;6.30;;;12.80;76.10;;;;;;5057199;28;20048;-65
2023/04/20 07:02:50;;;;;;;11.27;7.25;;;12.80;76.10;;;;;;5057729;28;20402;-67
2023/04/20 07:05:16;;;;;;;9.38;6.25;;;12.80;75.90;;;;;;5058183;28;20435;-65
2023/04/20 07:07:43;;;;;;;10.27;5.80;;;12.90;76.10;;;;;;5057665;28;20028;-67
2023/04/20 07:10:10;;;;;;;9.38;6.25;;;12.90;76.00;;;;;;5057846;28;20029;-67
2023/04/20 07:12:37;;;;;;;10.55;6.55;;;12.90;76.00;;;;;;5057787;28;20029;-66
2023/04/20 07:15:04;;;;;;;9.32;5.65;;;12.90;75.90;;;;;;5057806;28;20024;-66
2023/04/20 07:17:31;;;;;;;10.10;5.68;;;12.90;75.90;;;;;;5057758;28;20043;-66
2023/04/20 07:19:58;;;;;;;9.43;6.28;;;13.00;75.80;;;;;;5057694;28;20450;-67
2023/04/20 07:22:24;;;;;;;10.80;6.05;;;13.00;75.70;;;;;;5056309;28;20354;-67
2023/04/20 07:24:50;;;;;;;9.73;5.95;;;13.10;75.60;;;;;;5058069;28;20187;-66
2023/04/20 07:27:17;;;;;;;9.60;6.18;;;13.10;75.40;;;;;;5057269;28;20104;-66
2023/04/20 07:29:43;;;;;;;10.70;6.13;;;13.10;75.40;;;;;;5057242;28;20100;-66
2023/04/20 07:32:08;;;;;;;10.57;6.07;;;13.10;75.30;;;;;;5057361;28;20460;-67
2023/04/20 07:34:34;;;;;;;10.52;7.13;;;13.20;75.30;;;;;;5057633;28;20029;-67
2023/04/20 07:37:00;;;;;;;12.50;7.30;;;13.20;75.30;;;;;;5055871;28;20442;-66
2023/04/20 07:39:27;;;;;;;10.57;6.75;;;13.20;75.40;;;;;;5056968;28;20029;-66
2023/04/20 07:41:53;;;;;;;12.43;6.75;;;13.20;75.30;;;;;;5057111;28;20053;-66
2023/04/20 07:44:19;;;;;;;10.93;6.65;;;13.30;75.20;;;;;;5056827;28;20083;-67
2023/04/20 07:46:45;;;;;;;10.50;6.13;;;13.30;75.20;;;;;;5056900;28;20036;-66
2023/04/20 07:49:11;;;;;;;10.48;5.60;;;13.30;75.20;;;;;;5057088;28;20028;-66
2023/04/20 07:51:37;;;;;;;9.75;5.38;;;13.30;75.50;;;;;;5056624;28;20346;-66
2023/04/20 07:54:03;;;;;;;8.98;5.55;;;13.30;75.10;;;;;;5056735;28;20063;-66
2023/04/20 07:56:29;;;;;;;8.93;5.50;;;13.30;74.90;;;;;;5056771;28;20013;-67
2023/04/20 07:58:55;;;;;;;9.45;5.95;;;13.30;74.90;;;;;;5056945;28;20025;-66
2023/04/20 08:01:25;;;;;;;8.82;5.40;;;13.40;74.90;;;;;;5056500;28;20343;-66
2023/04/20 08:03:51;;;;;;;11.98;6.10;;;13.40;74.80;;;;;;5056531;28;20025;-66
2023/04/20 08:06:17;;;;;;;10.75;5.97;;;13.40;74.80;;;;;;5056540;28;20324;-71
2023/04/20 08:08:43;;;;;;;10.10;6.00;;;13.40;74.60;;;;;;5056748;28;20101;-71
2023/04/20 08:11:08;;;;;;;10.07;5.95;;;13.40;74.70;;;;;;5056474;28;20017;-65
2023/04/20 08:13:37;;;;;;;11.32;6.47;;;13.40;74.80;;;;;;5055521;28;20086;-65
2023/04/20 08:16:03;;;;;;;9.55;5.90;;;13.40;75.20;;;;;;5056510;28;20020;-62
2023/04/20 08:18:29;;;;;;;10.82;5.90;;;13.40;75.00;;;;;;5056440;28;20063;-65
2023/04/20 08:20:55;;;;;;;11.30;6.85;;;13.40;75.20;;;;;;5056334;28;20048;-63
2023/04/20 08:23:26;;;;;;;10.38;5.97;;;13.30;75.10;;;;;;5055992;28;20421;-62
2023/04/20 08:25:55;;;;;;;9.52;6.43;;;13.40;75.90;;;;;;5056619;28;20047;-64
2023/04/20 08:28:22;;;;;;;9.02;6.13;;;13.40;76.40;;;;;;5056556;28;20016;-64
2023/04/20 08:30:49;;;;;;;10.07;5.88;;;13.40;75.20;;;;;;5054827;28;20084;-63
2023/04/20 08:33:15;;;;;;;9.93;6.10;;;13.40;75.30;;;;;;5055177;28;20059;-62
2023/04/20 08:35:41;;;;;;;9.77;6.32;;;13.40;75.10;;;;;;5056115;28;20032;-62
2023/04/20 08:38:06;;;;;;;12.25;6.72;;;13.40;75.50;;;;;;5056039;28;20049;-62
2023/04/20 08:40:35;;;;;;;11.63;6.60;;;13.50;75.70;;;;;;5056303;28;20064;-62
2023/04/20 08:43:01;;;;;;;11.55;6.90;;;13.50;75.60;;;;;;5055652;28;20063;-62
2023/04/20 08:45:29;;;;;;;10.20;7.03;;;13.60;75.40;;;;;;5055948;28;20056;-62
2023/04/20 08:47:57;;;;;;;12.25;6.95;;;13.70;75.20;;;;;;5055881;28;20052;-62
2023/04/20 08:50:23;;;;;;;10.40;6.88;;;13.80;74.30;;;;;;5055888;28;20040;-63
2023/04/20 08:52:49;;;;;;;11.63;7.38;;;13.90;74.10;;;;;;5055856;28;20029;-62
2023/04/20 08:55:19;;;;;;;11.73;6.75;;;14.10;74.80;;;;;;5055813;28;20029;-62
2023/04/20 08:57:48;;;;;;;10.95;6.60;;;14.20;72.40;;;;;;5055738;28;20032;-62
2023/04/20 09:00:15;;;;;;;11.43;7.00;;;14.20;73.00;;;;;;5055627;28;20472;-63
2023/04/20 09:02:54;;;;;;;9.93;6.88;;;14.20;72.50;;;;;;5055448;28;20474;-63
2023/04/20 09:05:30;;;;;;;10.70;7.03;;;14.40;73.20;;;;;;5054687;28;20021;-62
2023/04/20 09:07:58;;;;;;;12.43;7.07;;;14.50;73.00;;;;;;5055865;28;20036;-62
2023/04/20 09:10:26;;;;;;;11.55;7.03;;;14.60;72.90;;;;;;5055509;28;20434;-63
2023/04/20 09:12:52;;;;;;;10.63;6.47;;;14.80;72.30;;;;;;5055423;28;20343;-62
2023/04/20 09:15:30;;;;;;;11.10;6.47;;;14.80;71.30;;;;;;5055531;28;20036;-62
2023/04/20 09:17:57;;;;;;;13.85;6.90;;;14.80;69.20;;;;;;5054850;28;20028;-62
2023/04/20 09:20:30;;;;;;;11.93;6.85;;;14.70;70.60;;;;;;5055981;28;20032;-62
2023/04/20 09:22:56;;;;;;;10.77;7.00;;;14.60;71.50;;;;;;5055265;28;20104;-62
2023/04/20 09:25:25;;;;;;;12.43;6.90;;;14.50;70.00;;;;;;5055234;28;20021;-62
2023/04/20 09:27:58;;;;;;;12.00;7.18;;;14.50;70.50;;;;;;5055861;28;20017;-62
2023/04/20 09:30:35;;;;;;;13.75;7.82;;;14.40;70.50;;;;;;5055360;28;20324;-63
2023/04/20 09:33:06;;;;;;;10.13;6.72;;;14.40;70.60;;;;;;5055482;28;20021;-63
2023/04/20 09:35:37;;;;;;;12.00;7.90;;;14.40;71.20;;;;;;5055262;28;20033;-63
2023/04/20 09:38:03;;;;;;;12.38;7.00;;;14.40;72.00;;;;;;5055126;28;20128;-62
2023/04/20 09:40:30;;;;;;;11.38;7.60;;;14.40;72.70;;;;;;5055154;28;20067;-63
2023/04/20 09:43:02;;;;;;;10.85;7.40;;;14.40;71.70;;;;;;5055511;28;20029;-62
2023/04/20 09:45:29;;;;;;;11.85;7.38;;;14.50;71.00;;;;;;5055127;28;20438;-63
2023/04/20 09:47:55;;;;;;;13.65;7.25;;;14.50;70.80;;;;;;5055397;28;20099;-62
2023/04/20 09:50:21;;;;;;;11.98;7.45;;;14.40;70.20;;;;;;5055341;28;20079;-62
2023/04/20 09:52:48;;;;;;;13.80;7.55;;;14.50;71.40;;;;;;5055001;28;20104;-63
2023/04/20 09:55:14;;;;;;;11.13;7.18;;;14.50;71.20;;;;;;5055064;28;20035;-62
2023/04/20 09:57:41;;;;;;;11.73;7.28;;;14.60;71.40;;;;;;5054993;28;20103;-63
2023/04/20 10:00:11;;;;;;;12.43;7.10;;;14.60;70.70;;;;;;5054966;28;20095;-63
2023/04/20 10:02:38;;;;;;;12.02;7.38;;;14.70;70.30;;;;;;5055102;28;20060;-63
2023/04/20 10:05:04;;;;;;;12.13;7.30;;;14.70;70.10;;;;;;5054362;28;20025;-62
2023/04/20 10:07:32;;;;;;;10.48;7.35;;;14.80;70.00;;;;;;5054927;28;20442;-62
2023/04/20 10:10:08;;;;;;;12.35;8.32;;;14.90;71.00;;;;;;5055174;28;20045;-62
2023/04/20 10:12:56;;;;;;;11.07;7.00;;;14.90;69.50;;;;;;5055091;28;20025;-63
2023/04/20 10:15:23;;;;;;;14.75;8.52;;;14.90;69.70;;;;;;5055404;28;20029;-62
2023/04/20 10:17:50;;;;;;;13.05;8.27;;;14.90;69.60;;;;;;5053910;28;20335;-63
2023/04/20 10:20:20;;;;;;;12.38;7.30;;;14.80;70.60;;;;;;5055069;28;20446;-62
2023/04/20 10:22:46;;;;;;;12.63;7.65;;;14.80;70.10;;;;;;5054634;28;20485;-62
2023/04/20 10:25:18;;;;;;;11.48;7.53;;;14.70;70.80;;;;;;5054176;28;20025;-62
2023/04/20 10:27:58;;;;;;;11.43;7.25;;;14.70;70.90;;;;;;5053848;28;20079;-62
2023/04/20 10:30:25;;;;;;;11.25;7.25;;;14.60;70.20;;;;;;5055016;28;20029;-62
2023/04/20 10:33:07;;;;;;;12.07;7.28;;;14.60;70.60;;;;;;5054839;28;20040;-62
2023/04/20 10:35:50;;;;;;;12.82;7.93;;;14.60;71.30;;;;;;5055966;28;20338;-62
2023/04/20 10:38:29;;;;;;;13.32;7.75;;;14.60;71.40;;;;;;5058243;28;20060;-62
2023/04/20 10:40:55;;;;;;;13.50;7.38;;;14.60;71.00;;;;;;5058674;28;20067;-63
2023/04/20 10:43:21;;;;;;;11.80;7.38;;;14.50;70.70;;;;;;5058178;28;20028;-63
2023/04/20 10:45:49;;;;;;;10.43;6.90;;;14.50;70.40;;;;;;5058511;28;20434;-62
2023/04/20 10:48:15;;;;;;;12.40;7.68;;;14.50;70.50;;;;;;5058739;28;20021;-62
2023/04/20 10:50:41;;;;;;;10.20;7.20;;;14.50;70.80;;;;;;5058121;28;20096;-62
2023/04/20 10:53:18;;;;;;;11.05;7.47;;;14.50;70.50;;;;;;5058255;28;20051;-62
2023/04/20 10:55:43;;;;;;;13.00;7.20;;;14.40;70.80;;;;;;5058298;28;20331;-62
2023/04/20 10:58:23;;;;;;;11.48;7.15;;;14.40;70.90;;;;;;5058022;28;20052;-62
2023/04/20 11:00:59;;;;;;;12.65;7.80;;;14.30;71.30;;;;;;5058546;28;20029;-62
2023/04/20 11:03:27;;;;;;;13.68;7.38;;;14.20;71.80;;;;;;5057743;28;20108;-63
2023/04/20 11:05:54;;;;;;;11.63;6.72;;;14.20;72.40;;;;;;5056924;28;20522;-62
2023/04/20 11:08:20;;;;;;;12.27;6.60;;;14.20;71.20;;;;;;5057815;28;20052;-62
2023/04/20 11:10:47;;;;;;;10.02;6.68;;;14.10;70.60;;;;;;5057996;28;20037;-62
2023/04/20 11:13:21;;;;;;;11.60;7.20;;;14.10;70.00;;;;;;5057632;28;20048;-62
2023/04/20 11:15:47;;;;;;;10.70;6.30;;;14.10;70.10;;;;;;5057931;28;20028;-63
2023/04/20 11:18:13;;;;;;;10.38;6.57;;;14.10;70.50;;;;;;5058168;28;20454;-62
2023/04/20 11:20:53;;;;;;;10.05;6.18;;;14.10;69.90;;;;;;5057876;28;20040;-62
2023/04/20 11:23:24;;;;;;;12.20;6.95;;;14.10;69.90;;;;;;5057693;28;20074;-62
2023/04/20 11:25:54;;;;;;;10.40;6.55;;;14.10;70.80;;;;;;5057744;28;20048;-62
2023/04/20 11:28:20;;;;;;;11.68;6.70;;;14.10;71.60;;;;;;5056497;28;20035;-63
2023/04/20 11:30:48;;;;;;;10.85;6.65;;;14.00;72.60;;;;;;5057399;28;20036;-62
2023/04/20 11:33:23;;;;;;;10.23;6.60;;;13.90;72.00;;;;;;5057229;28;20057;-62
2023/04/20 11:35:49;;;;;;;11.40;6.22;;;13.90;72.80;;;;;;5057606;28;20104;-62
2023/04/20 11:38:32;;;;;;;10.35;6.40;;;13.80;72.70;;;;;;5057196;28;20415;-62
2023/04/20 11:41:03;;;;;;;11.77;6.82;;;13.80;72.80;;;;;;5057547;28;20029;-62
2023/04/20 11:43:32;;;;;;;11.35;6.85;;;13.80;73.50;;;;;;5057029;28;20064;-62
2023/04/20 11:46:00;;;;;;;10.45;6.65;;;13.80;73.90;;;;;;5057602;28;20378;-62
2023/04/20 11:48:30;;;;;;;12.02;7.18;;;13.80;73.50;;;;;;5056963;28;20504;-62
2023/04/20 11:50:56;;;;;;;10.65;6.95;;;13.80;74.00;;;;;;5057033;28;20074;-62
2023/04/20 11:53:22;;;;;;;10.93;6.97;;;13.80;74.00;;;;;;5056890;28;20055;-62
2023/04/20 11:55:48;;;;;;;12.75;7.22;;;13.70;74.60;;;;;;5057468;28;20025;-62
2023/04/20 11:58:14;;;;;;;12.65;7.80;;;13.70;74.70;;;;;;5057139;28;20481;-62
2023/04/20 12:00:40;;;;;;;13.40;7.65;;;13.70;75.10;;;;;;5057111;28;20029;-62
2023/04/20 12:03:06;;;;;;;12.50;7.53;;;13.70;74.60;;;;;;5056833;28;20043;-62
2023/04/20 12:05:32;;;;;;;13.05;7.03;;;13.70;74.70;;;;;;5057215;28;20036;-62
2023/04/20 12:07:58;;;;;;;12.80;7.55;;;13.70;74.00;;;;;;5056912;28;20025;-62
2023/04/20 12:10:24;;;;;;;10.50;6.88;;;13.60;73.50;;;;;;5057184;28;20029;-62
2023/04/20 12:12:51;;;;;;;11.05;6.85;;;13.60;74.00;;;;;;5057044;28;20381;-62
2023/04/20 12:15:17;;;;;;;11.40;7.03;;;13.50;73.70;;;;;;5055561;28;20116;-62
2023/04/20 12:17:42;;;;;;;10.50;7.10;;;13.50;74.40;;;;;;5056480;28;20116;-62
2023/04/20 12:20:10;;;;;;;10.57;6.68;;;13.50;73.90;;;;;;5056473;28;20493;-62
2023/04/20 12:22:37;;;;;;;11.73;6.68;;;13.50;74.20;;;;;;5056208;28;20028;-62
2023/04/20 12:25:04;;;;;;;11.13;6.72;;;13.50;74.30;;;;;;5056899;28;20059;-62
2023/04/20 12:27:30;;;;;;;10.07;6.53;;;13.50;73.80;;;;;;5056241;28;20032;-62
2023/04/20 12:29:56;;;;;;;9.23;6.20;;;13.50;73.40;;;;;;5056815;28;20036;-62
2023/04/20 12:32:22;;;;;;;9.95;6.43;;;13.40;73.60;;;;;;5056462;28;20032;-62
2023/04/20 12:34:48;;;;;;;10.52;6.20;;;13.40;73.10;;;;;;5056167;28;20367;-62
2023/04/20 12:37:14;;;;;;;12.43;6.28;;;13.40;73.60;;;;;;5055821;28;20359;-62
2023/04/20 12:39:40;;;;;;;10.00;6.28;;;13.40;73.40;;;;;;5056046;28;20324;-62